Time;durP1;ratioP1;P1;durP2;ratioP2;P2;SDS_P1;SDS_P2;PMS_P1;PMS_P2;Temp;Humidity;BMP_temperature;BMP_pressure;BME280_temperature;BME280_humidity;BME280_pressure;Samples;Min_cycle;Max_cycle;Signal;HPM_P1;HPM_P2
2023/04/19 00:01:08;;;;;;;6.87;2.73;;;;;;;;;;5029903;28;20197;-64
2023/04/19 00:03:35;;;;;;;5.43;2.70;;;;;;;;;;5029155;28;20418;-64
2023/04/19 00:06:02;;;;;;;4.07;2.53;;;;;;;;;;5029874;28;20278;-64
2023/04/19 00:08:29;;;;;;;8.90;3.13;;;;;;;;;;5029466;28;20215;-64
2023/04/19 00:10:55;;;;;;;8.37;2.53;;;;;;;;;;5029298;28;20196;-64
2023/04/19 00:13:22;;;;;;;8.40;2.70;;;;;;;;;;5029688;28;20206;-64
2023/04/19 00:15:49;;;;;;;8.13;3.27;;;;;;;;;;5029752;28;20187;-64
2023/04/19 00:18:15;;;;;;;6.27;2.70;;;;;;;;;;5029545;28;20562;-64
2023/04/19 00:20:42;;;;;;;4.60;2.50;;;;;;;;;;5029556;28;20195;-64
2023/04/19 00:23:09;;;;;;;7.07;2.37;;;;;;;;;;5029623;28;20190;-64
2023/04/19 00:25:35;;;;;;;4.70;2.43;;;;;;;;;;5021899;28;20180;-64
2023/04/19 00:28:02;;;;;;;5.30;2.67;;;;;;;;;;5009880;28;20520;-64
2023/04/19 00:30:29;;;;;;;6.27;2.63;;;;;;;;;;5009909;28;20256;-64
2023/04/19 00:32:56;;;;;;;4.47;2.37;;;;;;;;;;5009655;28;20579;-64
2023/04/19 00:35:23;;;;;;;8.43;2.70;;;;;;;;;;5008509;28;20203;-64
2023/04/19 00:37:50;;;;;;;8.90;2.70;;;;;;;;;;5007970;28;20219;-64
2023/04/19 00:40:17;;;;;;;5.27;2.53;;;;;;;;;;5001171;28;20227;-64
2023/04/19 00:42:44;;;;;;;3.93;2.50;;;;;;;;;;4992523;28;20219;-64
2023/04/19 00:45:11;;;;;;;8.67;2.43;;;;;;;;;;5009189;28;20248;-64
2023/04/19 00:47:39;;;;;;;8.13;2.80;;;;;;;;;;5008836;28;20212;-64
2023/04/19 00:50:06;;;;;;;8.07;2.90;;;;;;;;;;5007428;28;20212;-64
2023/04/19 00:52:33;;;;;;;9.13;3.10;;;;;;;;;;5008002;28;20283;-65
2023/04/19 00:55:00;;;;;;;9.90;2.80;;;;;;;;;;4991735;28;20675;-64
2023/04/19 00:57:27;;;;;;;7.00;2.80;;;;;;;;;;5008296;28;20214;-64
2023/04/19 00:59:54;;;;;;;7.17;3.00;;;;;;;;;;5007550;28;20307;-64
2023/04/19 01:02:21;;;;;;;8.63;2.90;;;;;;;;;;5007481;28;20204;-64
2023/04/19 01:04:48;;;;;;;6.50;3.00;;;;;;;;;;5008911;28;20218;-64
2023/04/19 01:07:15;;;;;;;7.50;2.90;;;;;;;;;;5009070;28;20196;-64
2023/04/19 01:09:42;;;;;;;8.80;2.77;;;;;;;;;;5008113;28;20216;-64
2023/04/19 01:12:09;;;;;;;8.40;2.70;;;;;;;;;;5007238;28;20195;-64
2023/04/19 01:14:35;;;;;;;11.13;2.97;;;;;;;;;;5013436;28;20195;-64
2023/04/19 01:17:02;;;;;;;6.17;3.07;;;;;;;;;;5028475;28;20651;-64
2023/04/19 01:19:29;;;;;;;4.40;2.53;;;;;;;;;;5028527;28;20611;-64
2023/04/19 01:21:57;;;;;;;7.73;2.70;;;;;;;;;;5010818;28;20214;-64
2023/04/19 01:24:24;;;;;;;8.67;2.93;;;;;;;;;;5011330;28;20265;-63
2023/04/19 01:26:51;;;;;;;6.07;2.80;;;;;;;;;;5028234;28;20422;-64
2023/04/19 01:29:20;;;;;;;7.03;2.70;;;;;;;;;;5028216;28;20210;-64
2023/04/19 01:31:52;;;;;;;9.20;3.30;;;;;;;;;;5027628;28;20609;-64
2023/04/19 01:34:19;;;;;;;10.57;2.83;;;;;;;;;;5010605;28;20219;-64
2023/04/19 01:36:45;;;;;;;4.77;2.50;;;;;;;;;;5028704;28;20195;-64
2023/04/19 01:39:12;;;;;;;6.63;2.77;;;;;;;;;;5027869;28;20187;-64
2023/04/19 01:41:39;;;;;;;11.67;3.27;;;;;;;;;;5010301;28;20250;-64
2023/04/19 02:16:06;;;;;;;5.90;2.80;;;;;;;;;;5027712;28;21243;-64
2023/04/19 02:18:38;;;;;;;8.27;3.17;;;;;;;;;;5009918;28;20438;-63
2023/04/19 02:21:06;;;;;;;9.77;3.10;;;;;;;;;;5027768;28;20465;-64
2023/04/19 02:23:33;;;;;;;7.83;3.27;;;;;;;;;;5027500;28;20187;-64
2023/04/19 02:26:02;;;;;;;7.67;3.13;;;;;;;;;;5010215;28;20534;-63
2023/04/19 02:28:29;;;;;;;9.23;3.03;;;;;;;;;;5026849;28;20930;-63
2023/04/19 02:30:56;;;;;;;10.30;3.50;;;;;;;;;;5028012;28;20488;-64
2023/04/19 02:33:23;;;;;;;11.33;3.57;;;;;;;;;;5027683;28;20426;-64
2023/04/19 02:35:49;;;;;;;9.95;4.00;;;;;;;;;;5009716;28;20429;-63
2023/04/19 02:38:16;;;;;;;9.27;4.00;;;;;;;;;;5027533;28;20191;-62
2023/04/19 02:40:43;;;;;;;12.20;4.00;;;;;;;;;;5027369;28;20615;-62
2023/04/19 02:43:10;;;;;;;8.10;3.67;;;;;;;;;;5009884;28;20434;-62
2023/04/19 02:45:36;;;;;;;8.67;3.47;;;;;;;;;;5019400;28;20794;-62
2023/04/19 02:48:03;;;;;;;9.83;3.27;;;;;;;;;;5008105;28;20618;-62
2023/04/19 02:50:30;;;;;;;10.93;3.50;;;;;;;;;;5007732;28;20303;-63
2023/04/19 02:52:57;;;;;;;10.60;4.03;;;;;;;;;;5007996;28;20423;-62
2023/04/19 02:55:26;;;;;;;7.80;3.30;;;;;;;;;;5006594;28;21339;-62
2023/04/19 02:58:03;;;;;;;11.33;3.57;;;;;;;;;;5006480;28;20853;-62
2023/04/19 03:00:31;;;;;;;8.63;3.53;;;;;;;;;;5006461;28;20455;-62
2023/04/19 03:03:04;;;;;;;8.43;3.87;;;;;;;;;;5011703;28;20448;-62
2023/04/19 03:05:33;;;;;;;7.57;3.57;;;;;;;;;;5007656;28;20439;-62
2023/04/19 03:07:59;;;;;;;8.17;3.00;;;;;;;;;;4989925;28;20489;-62
2023/04/19 03:10:26;;;;;;;7.90;3.40;;;;;;;;;;5022858;28;20247;-62
2023/04/19 03:12:53;;;;;;;11.47;6.03;;;;;;;;;;4992095;28;20814;-62
2023/04/19 03:15:21;;;;;;;8.90;4.13;;;;;;;;;;5026156;28;20446;-62
2023/04/19 03:17:48;;;;;;;7.10;3.87;;;;;;;;;;5007709;28;20546;-62
2023/04/19 03:20:17;;;;;;;8.70;4.20;;;;;;;;;;4993469;28;20545;-62
2023/04/19 03:22:44;;;;;;;7.77;3.23;;;;;;;;;;5009250;28;20862;-63
2023/04/19 03:25:14;;;;;;;11.43;4.70;;;;;;;;;;5021660;28;21156;-65
2023/04/19 03:27:46;;;;;;;9.83;3.50;;;;;;;;;;5012341;28;20502;-64
2023/04/19 03:30:17;;;;;;;8.60;3.80;;;;;;;;;;5011921;28;20481;-67
2023/04/19 03:32:43;;;;;;;10.30;4.27;;;;;;;;;;5012884;28;20456;-65
2023/04/19 03:35:11;;;;;;;11.13;4.17;;;;;;;;;;5012889;28;21343;-65
2023/04/19 03:37:38;;;;;;;7.63;3.80;;;;;;;;;;5010578;28;20449;-66
2023/04/19 03:40:08;;;;;;;10.00;4.10;;;;;;;;;;4998397;28;20481;-68
2023/04/19 03:42:35;;;;;;;10.23;3.60;;;;;;;;;;5010009;28;20469;-67
2023/04/19 03:45:08;;;;;;;6.93;3.20;;;;;;;;;;5008901;28;20441;-69
2023/04/19 03:47:39;;;;;;;5.77;3.53;;;;;;;;;;5041857;28;20426;-65
2023/04/19 03:50:06;;;;;;;10.37;3.70;;;;;;;;;;5008765;28;20886;-67
2023/04/19 03:52:35;;;;;;;11.90;3.70;;;;;;;;;;5008143;28;20806;-65
2023/04/19 03:55:02;;;;;;;8.20;4.13;;;;;;;;;;5026875;28;20461;-67
2023/04/19 03:57:34;;;;;;;8.63;3.90;;;;;;;;;;5011094;28;20446;-65
2023/04/19 04:00:09;;;;;;;7.23;4.03;;;;;;;;;;5009535;28;20482;-65
2023/04/19 04:02:44;;;;;;;7.53;3.80;;;;;;;;;;5009145;28;21169;-68
2023/04/19 04:05:12;;;;;;;6.83;3.67;;;;;;;;;;5009469;28;20457;-68
2023/04/19 04:07:40;;;;;;;8.63;4.10;;;;;;;;;;5010430;28;20200;-66
2023/04/19 04:10:08;;;;;;;9.63;4.30;;;;;;;;;;5008801;28;20486;-67
2023/04/19 04:12:40;;;;;;;9.57;4.17;;;;;;;;;;5009264;28;20192;-66
2023/04/19 04:15:17;;;;;;;10.70;4.50;;;;;;;;;;5012312;28;20201;-68
2023/04/19 04:17:49;;;;;;;11.30;3.80;;;;;;;;;;4995426;28;20449;-68
2023/04/19 04:20:18;;;;;;;6.50;3.87;;;;;;;;;;5001834;28;20249;-66
2023/04/19 04:22:46;;;;;;;7.27;4.00;;;;;;;;;;5019005;28;20868;-67
2023/04/19 04:25:15;;;;;;;6.97;3.90;;;;;;;;;;4997692;28;20194;-65
2023/04/19 04:27:47;;;;;;;7.93;3.50;;;;;;;;;;5013511;28;20909;-65
2023/04/19 04:30:17;;;;;;;8.43;3.63;;;;;;;;;;5005645;28;20694;-67
2023/04/19 04:32:45;;;;;;;8.10;3.73;;;;;;;;;;5008250;28;20215;-66
2023/04/19 04:35:13;;;;;;;7.97;3.60;;;;;;;;;;5009922;28;20225;-67
2023/04/19 04:37:47;;;;;;;8.77;3.30;;;;;;;;;;5008866;28;20203;-65
2023/04/19 04:40:14;;;;;;;8.60;3.83;;;;;;;;;;5007725;28;20262;-67
2023/04/19 04:42:41;;;;;;;7.87;3.50;;;;;;;;;;5006494;28;20234;-65
2023/04/19 04:45:09;;;;;;;9.33;3.80;;;;;;;;;;5019761;28;20199;-67
2023/04/19 04:47:42;;;;;;;9.57;3.70;;;;;;;;;;5008635;28;20222;-66
2023/04/19 04:50:09;;;;;;;7.27;3.60;;;;;;;;;;5043540;28;20217;-67
2023/04/19 04:52:37;;;;;;;7.73;3.30;;;;;;;;;;5011273;28;20202;-66
2023/04/19 04:55:17;;;;;;;6.87;3.37;;;;;;;;;;5016217;28;20194;-65
2023/04/19 04:57:46;;;;;;;8.07;3.67;;;;;;;;;;5008275;28;20211;-67
2023/04/19 05:00:25;;;;;;;9.13;3.30;;;;;;;;;;5008313;28;20206;-65
2023/04/19 05:03:05;;;;;;;9.13;3.67;;;;;;;;;;5008874;28;20275;-66
2023/04/19 05:05:37;;;;;;;9.30;3.87;;;;;;;;;;5008285;28;20204;-68
2023/04/19 05:08:05;;;;;;;6.93;3.30;;;;;;;;;;5006250;28;20183;-69
2023/04/19 05:10:33;;;;;;;9.10;3.20;;;;;;;;;;5007458;28;20226;-68
2023/04/19 05:13:00;;;;;;;8.47;3.40;;;;;;;;;;5008548;28;20253;-69
2023/04/19 05:15:29;;;;;;;7.70;3.60;;;;;;;;;;5008220;28;20215;-69
2023/04/19 05:17:57;;;;;;;7.93;3.50;;;;;;;;;;4992507;28;20681;-68
2023/04/19 05:20:25;;;;;;;8.27;3.00;;;;;;;;;;5008120;28;20199;-69
2023/04/19 05:23:02;;;;;;;4.93;3.23;;;;;;;;;;5013269;28;20190;-68
2023/04/19 05:25:31;;;;;;;7.77;3.33;;;;;;;;;;4995793;28;20199;-69
2023/04/19 05:27:59;;;;;;;7.63;3.67;;;;;;;;;;4991245;28;20953;-68
2023/04/19 05:30:31;;;;;;;5.87;3.10;;;;;;;;;;5007239;28;20226;-68
2023/04/19 05:33:00;;;;;;;7.70;2.93;;;;;;;;;;5007339;28;20302;-69
2023/04/19 05:35:27;;;;;;;5.47;3.07;;;;;;;;;;5019680;28;20206;-68
2023/04/19 05:37:54;;;;;;;6.20;3.20;;;;;;;;;;5007293;28;20666;-68
2023/04/19 05:40:23;;;;;;;5.83;3.10;;;;;;;;;;4997077;28;20236;-71
2023/04/19 05:42:50;;;;;;;12.33;3.17;;;;;;;;;;5003416;28;20191;-68
2023/04/19 05:45:20;;;;;;;10.10;3.10;;;;;;;;;;5013016;28;20191;-67
2023/04/19 05:47:47;;;;;;;8.67;2.83;;;;;;;;;;5025149;28;20941;-69
2023/04/19 05:50:17;;;;;;;8.70;2.77;;;;;;;;;;5024807;28;20219;-69
2023/04/19 05:52:51;;;;;;;7.70;2.70;;;;;;;;;;5005830;28;20306;-67
2023/04/19 05:55:18;;;;;;;6.67;2.70;;;;;;;;;;5009512;28;20284;-67
2023/04/19 05:57:46;;;;;;;6.10;3.00;;;;;;;;;;5009135;28;20194;-67
2023/04/19 06:00:15;;;;;;;8.30;3.00;;;;;;;;;;5014313;28;20675;-69
2023/04/19 06:02:50;;;;;;;6.27;3.17;;;;;;;;;;5007014;28;20199;-68
2023/04/19 06:05:17;;;;;;;5.10;3.07;;;;;;;;;;5011332;28;20186;-67
2023/04/19 06:07:44;;;;;;;6.33;3.00;;;;;;;;;;5025892;28;20615;-69
2023/04/19 06:10:22;;;;;;;6.87;2.77;;;;;;;;;;4992661;28;20303;-68
2023/04/19 06:12:49;;;;;;;5.67;2.93;;;;;;;;;;5027216;28;20178;-68
2023/04/19 06:15:16;;;;;;;8.63;2.70;;;;;;;;;;5006983;28;20226;-68
2023/04/19 06:17:44;;;;;;;7.57;2.93;;;;;;;;;;5023661;28;20203;-68
2023/04/19 06:20:11;;;;;;;9.23;3.37;;;;;;;;;;5027168;28;20195;-67
2023/04/19 06:22:41;;;;;;;6.10;2.93;;;;;;;;;;5024828;28;20190;-66
2023/04/19 06:25:08;;;;;;;6.93;2.87;;;;;;;;;;5024126;28;20191;-67
2023/04/19 06:27:36;;;;;;;6.00;2.90;;;;;;;;;;5022704;28;20228;-67
2023/04/19 06:30:04;;;;;;;10.33;3.20;;;;;;;;;;5029714;28;20218;-67
2023/04/19 06:32:31;;;;;;;6.67;3.33;;;;;;;;;;5029114;28;20187;-67
2023/04/19 06:34:58;;;;;;;7.07;3.20;;;;;;;;;;5001044;28;20190;-67
2023/04/19 06:37:25;;;;;;;6.70;2.90;;;;;;;;;;5029132;28;20196;-67
2023/04/19 06:39:52;;;;;;;7.13;3.13;;;;;;;;;;5030895;28;20230;-67
2023/04/19 06:42:19;;;;;;;5.03;2.97;;;;;;;;;;5005168;28;20249;-65
2023/04/19 06:44:46;;;;;;;6.90;2.97;;;;;;;;;;5027413;28;20300;-65
2023/04/19 06:47:12;;;;;;;8.70;3.07;;;;;;;;;;5028360;28;20204;-65
2023/04/19 06:49:39;;;;;;;9.23;2.90;;;;;;;;;;5031722;28;20294;-65
2023/04/19 06:52:06;;;;;;;7.73;2.80;;;;;;;;;;5030035;28;20199;-67
2023/04/19 06:54:33;;;;;;;7.23;3.07;;;;;;;;;;5011347;28;20192;-69
2023/04/19 06:57:01;;;;;;;4.67;2.93;;;;;;;;;;5033843;28;20206;-66
2023/04/19 06:59:30;;;;;;;5.57;3.03;;;;;;;;;;5033795;28;20199;-66
2023/04/19 07:01:57;;;;;;;5.67;3.07;;;;;;;;;;5030437;28;20191;-67
2023/04/19 07:04:25;;;;;;;6.37;2.73;;;;;;;;;;5028931;28;20219;-67
2023/04/19 07:06:52;;;;;;;5.77;2.70;;;;;;;;;;5007034;28;20198;-66
2023/04/19 07:09:19;;;;;;;6.23;2.90;;;;;;;;;;5030501;28;20199;-68
2023/04/19 07:11:47;;;;;;;7.77;3.03;;;;;;;;;;5034065;28;20792;-68
2023/04/19 07:14:14;;;;;;;7.77;3.00;;;;;;;;;;5038365;28;20202;-67
2023/04/19 07:16:41;;;;;;;8.60;2.63;;;;;;;;;;5027486;28;20192;-66
2023/04/19 07:19:09;;;;;;;7.60;2.77;;;;;;;;;;5007614;28;20187;-67
2023/04/19 07:21:38;;;;;;;7.77;3.23;;;;;;;;;;5011609;28;20199;-67
2023/04/19 07:24:05;;;;;;;7.40;3.00;;;;;;;;;;5033751;28;20228;-69
2023/04/19 07:26:33;;;;;;;8.40;3.40;;;;;;;;;;5017973;28;20214;-71
2023/04/19 07:29:00;;;;;;;8.27;3.10;;;;;;;;;;5030272;28;20199;-69
2023/04/19 07:31:28;;;;;;;5.37;2.80;;;;;;;;;;4996867;28;20216;-69
2023/04/19 07:33:56;;;;;;;7.73;4.07;;;;;;;;;;5011232;28;20208;-69
2023/04/19 07:36:23;;;;;;;5.97;2.80;;;;;;;;;;5030794;28;20575;-67
2023/04/19 07:38:50;;;;;;;6.03;2.93;;;;;;;;;;5030952;28;20253;-70
2023/04/19 07:41:17;;;;;;;6.43;2.97;;;;;;;;;;5022237;28;20239;-69
2023/04/19 07:43:44;;;;;;;11.17;2.80;;;;;;;;;;5031329;28;20210;-68
2023/04/19 07:46:14;;;;;;;7.40;2.97;;;;;;;;;;5032445;28;20195;-69
2023/04/19 07:48:43;;;;;;;5.67;2.90;;;;;;;;;;5028769;28;20214;-67
2023/04/19 07:51:13;;;;;;;7.23;2.67;;;;;;;;;;5032404;28;20207;-67
2023/04/19 07:53:42;;;;;;;11.30;2.93;;;;;;;;;;5034205;28;20659;-67
2023/04/19 07:56:10;;;;;;;11.77;3.30;;;;;;;;;;5031853;28;20214;-66
2023/04/19 07:58:40;;;;;;;8.97;3.10;;;;;;;;;;5032409;28;20184;-66
2023/04/19 08:01:07;;;;;;;5.00;2.50;;;;;;;;;;5035661;28;20198;-66
2023/04/19 08:03:36;;;;;;;8.37;3.37;;;;;;;;;;5032585;28;20559;-67
2023/04/19 08:06:04;;;;;;;5.73;3.03;;;;;;;;;;5032157;28;20215;-66
2023/04/19 08:08:31;;;;;;;6.20;3.13;;;;;;;;;;5031143;28;20188;-66
2023/04/19 08:11:01;;;;;;;11.90;2.87;;;;;;;;;;5030105;28;20709;-67
2023/04/19 08:13:28;;;;;;;6.27;2.80;;;;;;;;;;5018028;28;20592;-69
2023/04/19 08:15:57;;;;;;;6.23;2.90;;;;;;;;;;5028670;28;20188;-66
2023/04/19 08:18:50;;;;;;;6.23;2.90;;;;;;;;;;5022927;28;20195;-66
2023/04/19 08:21:17;;;;;;;6.53;3.07;;;;;;;;;;5029461;28;20196;-66
2023/04/19 08:23:54;;;;;;;8.30;3.20;;;;;;;;;;5028211;28;20660;-67
2023/04/19 08:26:21;;;;;;;6.83;2.83;;;;;;;;;;5027588;28;20191;-66
2023/04/19 08:28:51;;;;;;;6.90;3.10;;;;;;;;;;5028392;28;20245;-66
2023/04/19 08:31:19;;;;;;;9.23;2.83;;;;;;;;;;5027922;28;20223;-66
2023/04/19 08:33:46;;;;;;;7.50;2.83;;;;;;;;;;5029045;28;20281;-66
2023/04/19 08:36:13;;;;;;;8.93;3.30;;;;;;;;;;5009459;28;20190;-66
2023/04/19 08:38:47;;;;;;;6.83;3.40;;;;;;;;;;5025565;28;20194;-66
2023/04/19 08:41:31;;;;;;;7.70;3.23;;;;;;;;;;5026981;28;20247;-66
2023/04/19 08:43:58;;;;;;;7.53;3.23;;;;;;;;;;5028466;28;20180;-66
2023/04/19 08:46:25;;;;;;;6.80;3.30;;;;;;;;;;5010337;28;20676;-66
2023/04/19 08:48:52;;;;;;;13.60;3.80;;;;;;;;;;5009464;28;20195;-67
2023/04/19 08:51:19;;;;;;;8.87;4.00;;;;;;;;;;5028167;28;20219;-66
2023/04/19 08:53:47;;;;;;;9.60;3.57;;;;;;;;;;5027813;28;20229;-66
2023/04/19 08:56:13;;;;;;;7.53;3.20;;;;;;;;;;5026923;28;20594;-66
2023/04/19 08:59:00;;;;;;;7.17;3.40;;;;;;;;;;5008241;28;21081;-66
2023/04/19 09:01:43;;;;;;;8.43;3.97;;;;;;;;;;5027739;28;20192;-66
2023/04/19 09:04:10;;;;;;;6.37;3.37;;;;;;;;;;5027230;28;20199;-66
2023/04/19 09:06:42;;;;;;;6.87;3.17;;;;;;;;;;5028563;28;20207;-66
2023/04/19 09:09:16;;;;;;;7.90;2.97;;;;;;;;;;5026289;28;20215;-66
2023/04/19 09:11:47;;;;;;;8.33;3.33;;;;;;;;;;5008537;28;20239;-67
2023/04/19 09:14:15;;;;;;;9.17;3.67;;;;;;;;;;5027806;28;20180;-66
2023/04/19 09:16:42;;;;;;;9.30;3.30;;;;;;;;;;5027730;28;20773;-66
2023/04/19 09:19:10;;;;;;;7.57;3.57;;;;;;;;;;5027545;28;20191;-66
2023/04/19 09:21:52;;;;;;;8.47;4.30;;;;;;;;;;5027570;28;20271;-67
2023/04/19 09:24:35;;;;;;;8.77;4.20;;;;;;;;;;5027875;28;20223;-67
2023/04/19 09:27:26;;;;;;;7.60;3.50;;;;;;;;;;5025590;28;20198;-66
2023/04/19 09:29:53;;;;;;;8.50;3.83;;;;;;;;;;5026782;28;20670;-66
2023/04/19 09:32:20;;;;;;;8.70;3.90;;;;;;;;;;5028004;28;20949;-66
2023/04/19 09:34:50;;;;;;;11.17;3.67;;;;;;;;;;5027417;28;20282;-66
2023/04/19 09:37:17;;;;;;;10.37;4.10;;;;;;;;;;5027107;28;20189;-67
2023/04/19 09:40:22;;;;;;;9.93;3.97;;;;;;;;;;5027471;28;20227;-67
2023/04/19 09:42:49;;;;;;;9.97;4.00;;;;;;;;;;5028313;28;20191;-67
2023/04/19 09:45:19;;;;;;;9.07;4.17;;;;;;;;;;5026638;28;20189;-67
2023/04/19 09:48:01;;;;;;;8.67;4.10;;;;;;;;;;5013662;28;20285;-67
2023/04/19 09:50:28;;;;;;;11.97;4.40;;;;;;;;;;5006566;28;20200;-65
2023/04/19 09:52:58;;;;;;;8.40;4.87;;;;;;;;;;5007107;28;20685;-65
2023/04/19 09:55:25;;;;;;;9.60;4.33;;;;;;;;;;5027595;28;20199;-66
2023/04/19 09:57:56;;;;;;;10.63;5.17;;;;;;;;;;5027846;28;20219;-65
2023/04/19 10:00:23;;;;;;;13.40;5.13;;;;;;;;;;5027376;28;20168;-66
2023/04/19 10:02:54;;;;;;;9.33;4.93;;;;;;;;;;5027068;28;20214;-66
2023/04/19 10:05:21;;;;;;;11.53;4.87;;;;;;;;;;4993856;28;20562;-66
2023/04/19 10:07:48;;;;;;;13.53;5.33;;;;;;;;;;5026354;28;20578;-66
2023/04/19 10:10:16;;;;;;;13.47;5.47;;;;;;;;;;5009084;28;20628;-66
2023/04/19 10:12:50;;;;;;;10.73;5.17;;;;;;;;;;5015613;28;20231;-66
2023/04/19 10:15:20;;;;;;;10.03;5.00;;;;;;;;;;5011128;28;20203;-66
2023/04/19 10:17:47;;;;;;;8.50;5.30;;;;;;;;;;5010016;28;20194;-67
2023/04/19 10:20:19;;;;;;;15.13;6.13;;;;;;;;;;5009836;28;20218;-66
2023/04/19 10:22:47;;;;;;;9.73;5.63;;;;;;;;;;5013289;28;20210;-66
2023/04/19 10:25:14;;;;;;;9.87;5.80;;;;;;;;;;5031472;28;20274;-66
2023/04/19 10:27:45;;;;;;;11.90;5.43;;;;;;;;;;5031688;28;20465;-66
2023/04/19 10:30:18;;;;;;;15.33;5.77;;;;;;;;;;5031267;28;20199;-65
2023/04/19 10:32:51;;;;;;;13.70;6.60;;;;;;;;;;5031424;28;20977;-65
2023/04/19 10:35:21;;;;;;;11.63;6.57;;;;;;;;;;5031286;28;20191;-65
2023/04/19 10:38:05;;;;;;;10.90;5.57;;;;;;;;;;5031139;28;20176;-65
2023/04/19 10:40:50;;;;;;;12.40;6.50;;;;;;;;;;5030717;28;20473;-64
2023/04/19 10:43:17;;;;;;;17.17;6.83;;;;;;;;;;5031237;28;20619;-65
2023/04/19 10:45:45;;;;;;;14.03;6.27;;;;;;;;;;5030785;28;20188;-66
2023/04/19 10:48:32;;;;;;;11.40;6.80;;;;;;;;;;5031222;28;20192;-65
2023/04/19 10:51:02;;;;;;;10.27;6.80;;;;;;;;;;5030862;28;20481;-65
2023/04/19 10:53:48;;;;;;;14.97;6.60;;;;;;;;;;5030883;28;20182;-65
2023/04/19 10:56:33;;;;;;;16.87;6.33;;;;;;;;;;5031085;28;20187;-65
2023/04/19 10:59:10;;;;;;;17.73;6.90;;;;;;;;;;5030794;28;20199;-65
2023/04/19 11:01:47;;;;;;;18.77;6.57;;;;;;;;;;5030341;28;20432;-65
2023/04/19 11:04:15;;;;;;;13.27;6.70;;;;;;;;;;5030853;28;20191;-65
2023/04/19 11:06:53;;;;;;;11.00;6.83;;;;;;;;;;5030826;28;20524;-64
2023/04/19 11:09:25;;;;;;;14.50;7.40;;;;;;;;;;5014554;28;20198;-65
2023/04/19 11:12:12;;;;;;;15.87;7.80;;;;;;;;;;5030304;28;20195;-65
2023/04/19 11:14:42;;;;;;;36.27;16.90;;;;;;;;;;5030432;28;20187;-66
2023/04/19 11:17:32;;;;;;;13.40;7.50;;;;;;;;;;5030271;28;20223;-65
2023/04/19 11:20:06;;;;;;;15.40;7.33;;;;;;;;;;5022944;28;20603;-64
2023/04/19 11:22:33;;;;;;;20.20;7.30;;;;;;;;;;5013162;28;20187;-64
2023/04/19 11:25:07;;;;;;;17.63;8.07;;;;;;;;;;5013048;28;20195;-65
2023/04/19 11:27:40;;;;;;;11.90;6.70;;;;;;;;;;5030294;28;20665;-65
2023/04/19 11:30:07;;;;;;;14.50;6.50;;;;;;;;;;5030119;28;20255;-65
2023/04/19 11:32:35;;;;;;;17.83;7.50;;;;;;;;;;5029318;28;20291;-67
2023/04/19 11:35:08;;;;;;;14.13;7.00;;;;;;;;;;5030091;28;20187;-65
2023/04/19 11:37:36;;;;;;;16.47;7.63;;;;;;;;;;5029831;28;20242;-66
2023/04/19 11:40:03;;;;;;;13.43;6.70;;;;;;;;;;5029595;28;20224;-65
2023/04/19 11:42:31;;;;;;;14.37;6.90;;;;;;;;;;5030264;28;20237;-65
2023/04/19 11:44:58;;;;;;;13.60;7.40;;;;;;;;;;5029818;28;20187;-65
2023/04/19 11:47:25;;;;;;;13.90;6.60;;;;;;;;;;5029975;28;20187;-65
2023/04/19 11:49:56;;;;;;;10.33;5.67;;;;;;;;;;5029646;28;20242;-65
2023/04/19 11:52:23;;;;;;;12.47;5.83;;;;;;;;;;5012059;28;20215;-65
2023/04/19 11:54:53;;;;;;;9.30;5.13;;;;;;;;;;5044026;28;20266;-65
2023/04/19 11:57:26;;;;;;;12.17;5.63;;;;;;;;;;4996156;28;20253;-65
2023/04/19 12:00:01;;;;;;;10.53;5.73;;;;;;;;;;5029621;28;20187;-65
2023/04/19 12:02:41;;;;;;;13.83;5.43;;;;;;;;;;5013464;28;20562;-65
2023/04/19 12:05:10;;;;;;;14.33;5.53;;;;;;;;;;5029620;28;20183;-65
2023/04/19 12:07:56;;;;;;;11.63;5.07;;;;;;;;;;5029540;28;20595;-65
2023/04/19 12:10:22;;;;;;;11.43;5.13;;;;;;;;;;5029522;28;20179;-65
2023/04/19 12:12:50;;;;;;;9.80;4.57;;;;;;;;;;5034808;28;20238;-65
2023/04/19 12:15:19;;;;;;;10.90;4.40;;;;;;;;;;5017446;28;20238;-65
2023/04/19 12:17:56;;;;;;;12.77;4.77;;;;;;;;;;5030348;28;20689;-65
2023/04/19 12:20:27;;;;;;;10.20;5.37;;;;;;;;;;5032553;28;20194;-66
2023/04/19 12:22:55;;;;;;;9.97;5.17;;;;;;;;;;5031671;28;20191;-65
2023/04/19 12:25:26;;;;;;;9.70;5.30;;;;;;;;;;5031434;28;20192;-65
2023/04/19 12:27:54;;;;;;;12.40;5.17;;;;;;;;;;5011585;28;20215;-65
2023/04/19 12:30:21;;;;;;;14.03;5.63;;;;;;;;;;5030312;28;20340;-66
2023/04/19 12:32:50;;;;;;;15.93;5.73;;;;;;;;;;5036463;28;20570;-66
2023/04/19 12:35:17;;;;;;;14.63;5.50;;;;;;;;;;5031074;28;20191;-65
2023/04/19 12:37:45;;;;;;;12.90;5.73;;;;;;;;;;5018179;28;20267;-65
2023/04/19 12:40:13;;;;;;;11.67;5.27;;;;;;;;;;5032015;28;20227;-66
2023/04/19 12:42:40;;;;;;;12.37;5.13;;;;;;;;;;5036091;28;20228;-66
2023/04/19 12:45:07;;;;;;;8.93;4.97;;;;;;;;;;5032922;28;20551;-66
2023/04/19 12:47:34;;;;;;;11.47;4.77;;;;;;;;;;5031501;28;20195;-66
2023/04/19 12:50:01;;;;;;;9.20;3.97;;;;;;;;;;5031206;28;20200;-67
2023/04/19 12:52:32;;;;;;;9.53;4.43;;;;;;;;;;5030934;28;20207;-66
2023/04/19 12:54:59;;;;;;;10.23;4.00;;;;;;;;;;5031302;28;20195;-66
2023/04/19 12:57:26;;;;;;;10.33;4.80;;;;;;;;;;5026065;28;20191;-66
2023/04/19 12:59:53;;;;;;;11.27;4.47;;;;;;;;;;5029568;28;20274;-66
2023/04/19 13:02:20;;;;;;;9.20;4.50;;;;;;;;;;5031273;28;20195;-66
2023/04/19 13:04:47;;;;;;;7.07;4.23;;;;;;;;;;5037388;28;20225;-66
2023/04/19 13:07:31;;;;;;;10.20;4.30;;;;;;;;;;5071188;28;20576;-67
2023/04/19 13:09:58;;;;;;;9.07;4.23;;;;;;;;;;5049686;28;20202;-66
2023/04/19 13:12:27;;;;;;;9.03;4.13;;;;;;;;;;5053460;28;20854;-69
2023/04/19 13:15:34;;;;;;;9.23;4.13;;;;;;;;;;5025947;28;20273;-68
2023/04/19 13:26:49;;;;;;;10.17;4.80;;;;;;;;;;4974575;28;20215;-66
2023/04/19 13:33:52;;;;;;;;;;;;;;;;;;;;;
2023/04/19 13:41:26;;;;;;;12.03;4.30;;;;;;;;;;4988715;28;20984;-65
2023/04/19 13:45:07;;;;;;;7.07;3.70;;;;;;;;;;4892804;29;20199;-66
2023/04/19 13:52:41;;;;;;;6.50;3.93;;;;;;;;;;4849361;29;20202;-66
2023/04/19 13:56:29;;;;;;;8.13;4.30;;;;;;;;;;4841922;29;20701;-66
2023/04/19 14:00:23;;;;;;;13.00;4.23;;;;;;;;;;4834156;29;20222;-66
2023/04/19 14:03:38;;;;;;;11.43;6.27;;;;;;;;;;4808242;29;20211;-66
2023/04/19 14:10:08;;;;;;;8.13;4.50;;;;;;;;;;4834221;29;20210;-66
2023/04/19 14:12:35;;;;;;;10.80;4.83;;;;;;;;;;4871790;29;20238;-66
2023/04/19 14:15:02;;;;;;;24.50;12.97;;;;;;;;;;4871329;29;20209;-66
2023/04/19 14:17:28;;;;;;;16.30;9.10;;;;;;;;;;4865302;29;20208;-66
2023/04/19 14:19:55;;;;;;;13.40;6.10;;;;;;;;;;4858877;29;20241;-66
2023/04/19 14:22:22;;;;;;;25.93;12.97;;;;;;;;;;4895470;29;20290;-67
2023/04/19 14:24:49;;;;;;;26.73;11.03;;;;;;;;;;4896434;29;20701;-67
2023/04/19 14:27:16;;;;;;;12.27;5.57;;;;;;;;;;4914828;29;20253;-66
2023/04/19 14:29:42;;;;;;;51.07;17.43;;;;;;;;;;4978967;28;20322;-66
2023/04/19 14:32:10;;;;;;;21.20;8.33;;;;;;;;;;5010894;28;20208;-66
2023/04/19 14:34:52;;;;;;;20.30;8.63;;;;;;;;;;5012292;28;20259;-70
2023/04/19 14:37:19;;;;;;;18.97;6.50;;;;;;;;;;5023829;28;20201;-67
2023/04/19 14:39:46;;;;;;;17.77;7.50;;;;;;;;;;5010545;28;20210;-66
2023/04/19 14:42:13;;;;;;;18.37;8.90;;;;;;;;;;5013327;28;20283;-66
2023/04/19 14:44:40;;;;;;;10.97;5.03;;;;;;;;;;5001947;28;20192;-67
2023/04/19 14:47:08;;;;;;;19.73;10.27;;;;;;;;;;4995117;28;20219;-65
2023/04/19 14:49:35;;;;;;;17.77;7.00;;;;;;;;;;5005998;28;20191;-65
2023/04/19 14:52:02;;;;;;;12.37;5.90;;;;;;;;;;5017113;28;20686;-66
2023/04/19 14:54:31;;;;;;;9.47;4.30;;;;;;;;;;5013313;28;20196;-65
2023/04/19 14:56:58;;;;;;;10.43;4.33;;;;;;;;;;5012731;28;20275;-65
2023/04/19 14:59:26;;;;;;;10.10;4.40;;;;;;;;;;5012478;28;20203;-66
2023/04/19 15:01:55;;;;;;;12.33;4.57;;;;;;;;;;5014812;28;20556;-66
2023/04/19 15:04:22;;;;;;;11.57;5.03;;;;;;;;;;5013025;28;20199;-66
2023/04/19 15:06:49;;;;;;;9.83;4.53;;;;;;;;;;5006232;28;20236;-66
2023/04/19 15:09:16;;;;;;;13.53;6.67;;;;;;;;;;5012817;28;20208;-66
2023/04/19 15:11:44;;;;;;;9.00;4.20;;;;;;;;;;5002211;28;20184;-66
2023/04/19 15:14:11;;;;;;;12.23;4.60;;;;;;;;;;5012727;28;20707;-65
2023/04/19 15:16:38;;;;;;;10.27;4.13;;;;;;;;;;5012811;28;20220;-65
2023/04/19 15:19:06;;;;;;;11.07;4.40;;;;;;;;;;5012962;28;20739;-65
2023/04/19 15:21:33;;;;;;;7.83;4.50;;;;;;;;;;4995269;28;20235;-66
2023/04/19 15:24:00;;;;;;;9.07;4.43;;;;;;;;;;5012228;28;20276;-66
2023/04/19 15:26:27;;;;;;;9.73;4.33;;;;;;;;;;5011870;28;20204;-66
2023/04/19 15:28:55;;;;;;;12.53;6.00;;;;;;;;;;5011558;28;20187;-66
2023/04/19 15:31:25;;;;;;;8.20;4.20;;;;;;;;;;5011904;28;20254;-67
2023/04/19 15:33:53;;;;;;;10.90;4.30;;;;;;;;;;5011902;28;20196;-66
2023/04/19 15:36:21;;;;;;;9.57;4.30;;;;;;;;;;5011884;28;20651;-66
2023/04/19 15:38:48;;;;;;;9.80;4.43;;;;;;;;;;5017040;28;20261;-66
2023/04/19 15:41:15;;;;;;;9.97;4.37;;;;;;;;;;5005870;28;20208;-66
2023/04/19 15:43:42;;;;;;;10.07;4.87;;;;;;;;;;5010827;28;20183;-67
2023/04/19 15:46:13;;;;;;;21.87;11.10;;;;;;;;;;5001477;28;20251;-68
2023/04/19 15:48:41;;;;;;;8.57;4.70;;;;;;;;;;4998979;28;20235;-68
2023/04/19 15:51:10;;;;;;;8.73;4.70;;;;;;;;;;4991888;28;20180;-69
2023/04/19 15:53:41;;;;;;;6.60;4.50;;;;;;;;;;5007667;28;20204;-70
2023/04/19 15:56:08;;;;;;;10.47;4.27;;;;;;;;;;5007732;28;20204;-68